Terminal Aerodrome Forecast
Issued by NWS Amarillo, TX

Home | Current Version | Previous Version | Text Only | Print | Product List | Glossary On
Versions: 1 2 3 4 5 6 7 8 9 10 11 12 13 14 15 16 17 18 19 20 21 22 23 24 25 26
000
FTUS44 KAMA 311100 AAA
TAFDHT
TAF AMD
KDHT 311157Z 3112/0112 19011KT 3SM -SHRA VCTS FEW006 BKN025CB
      TEMPO 3112/3115 4SM -TSRA BR FEW006 BKN010CB
     FM311700 15010KT P6SM SCT050 BKN100
     FM010000 14008KT 6SM BR VCTS SCT020 BKN050CB=

USA.gov is the U.S. government's official web portal to all federal, state and local government web resources and services.